Time;durP1;ratioP1;P1;durP2;ratioP2;P2;SDS_P1;SDS_P2;PMS_P1;PMS_P2;Temp;Humidity;BMP_temperature;BMP_pressure;BME280_temperature;BME280_humidity;BME280_pressure;Samples;Min_cycle;Max_cycle;Signal;HPM_P1;HPM_P2
2021/01/01 00:00:15;;;;;;;29.10;21.60;;;23.00;45.80;;;;;;4939912;29;20059;-50
2021/01/01 00:02:40;;;;;;;29.85;20.77;;;23.10;46.00;;;;;;4939886;29;20040;-49
2021/01/01 00:05:07;;;;;;;23.50;19.58;;;23.00;46.10;;;;;;4939806;29;20042;-49
2021/01/01 00:07:33;;;;;;;31.05;24.23;;;23.10;46.20;;;;;;4939631;29;20031;-48
2021/01/01 00:09:59;;;;;;;35.35;25.77;;;23.10;45.10;;;;;;4939521;29;20111;-48
2021/01/01 00:12:25;;;;;;;28.05;22.33;;;23.10;45.30;;;;;;4939683;29;20052;-49
2021/01/01 00:14:50;;;;;;;27.10;21.38;;;23.10;46.40;;;;;;4939662;29;20102;-47
2021/01/01 00:17:16;;;;;;;21.65;18.20;;;23.00;46.10;;;;;;4939607;29;20110;-55
2021/01/01 00:19:41;;;;;;;26.10;20.92;;;23.10;46.50;;;;;;4939605;29;20046;-48
2021/01/01 00:22:13;;;;;;;25.00;20.20;;;23.10;46.80;;;;;;4939701;29;20473;-48
2021/01/01 00:24:38;;;;;;;24.83;18.17;;;23.10;47.10;;;;;;4939363;29;20036;-46
2021/01/01 00:27:05;;;;;;;22.42;18.15;;;23.10;47.30;;;;;;4939537;29;20059;-46
2021/01/01 00:29:30;;;;;;;22.00;18.02;;;23.10;47.60;;;;;;4939157;29;20466;-49
2021/01/01 00:31:56;;;;;;;22.40;17.95;;;23.10;47.80;;;;;;4939234;29;20043;-49
2021/01/01 00:34:21;;;;;;;19.55;16.98;;;23.20;47.90;;;;;;4939686;29;20040;-47
2021/01/01 00:36:47;;;;;;;18.17;15.82;;;23.20;48.00;;;;;;4939109;29;20040;-46
2021/01/01 00:39:12;;;;;;;28.42;16.42;;;23.20;48.10;;;;;;4938980;29;20043;-46
2021/01/01 00:41:39;;;;;;;18.67;15.90;;;23.20;48.10;;;;;;4939148;29;20419;-47
2021/01/01 00:44:04;;;;;;;22.08;18.42;;;23.20;48.00;;;;;;4938949;29;20127;-46
2021/01/01 00:46:32;;;;;;;24.98;18.33;;;23.20;48.00;;;;;;4939186;29;20079;-47
2021/01/01 00:48:59;;;;;;;22.00;17.70;;;23.10;48.00;;;;;;4939216;29;20074;-47
2021/01/01 00:51:26;;;;;;;20.45;16.30;;;23.10;48.10;;;;;;4939003;29;20048;-51
2021/01/01 00:53:51;;;;;;;23.23;16.15;;;23.10;48.20;;;;;;4937951;29;20075;-48
2021/01/01 00:56:21;;;;;;;17.38;15.02;;;23.10;48.30;;;;;;4938623;29;20074;-49
2021/01/01 00:58:49;;;;;;;19.48;14.80;;;23.10;48.40;;;;;;4938922;29;20031;-47
2021/01/01 01:01:16;;;;;;;19.40;15.07;;;23.10;48.40;;;;;;4938794;29;20367;-48
2021/01/01 01:03:41;;;;;;;16.25;14.50;;;23.10;48.50;;;;;;4938667;29;20466;-50
2021/01/01 01:06:07;;;;;;;17.65;14.77;;;23.10;48.60;;;;;;4939036;29;20087;-51
2021/01/01 01:08:32;;;;;;;18.95;15.25;;;23.00;48.50;;;;;;4938500;29;20036;-48
2021/01/01 01:10:58;;;;;;;22.88;15.02;;;23.00;48.60;;;;;;4938199;29;20051;-46
2021/01/01 01:13:23;;;;;;;24.15;14.75;;;23.00;48.70;;;;;;4939026;29;20036;-49
2021/01/01 01:15:49;;;;;;;17.40;13.93;;;23.00;48.70;;;;;;4938599;29;20089;-48
2021/01/01 01:18:14;;;;;;;22.88;15.25;;;22.90;48.70;;;;;;4938580;29;20051;-48
2021/01/01 01:20:40;;;;;;;18.00;14.68;;;23.00;48.80;;;;;;4938559;29;20051;-48
2021/01/01 01:23:05;;;;;;;16.30;13.52;;;22.90;48.80;;;;;;4938255;29;20031;-47
2021/01/01 01:25:31;;;;;;;17.70;14.68;;;22.90;48.90;;;;;;4938158;29;20091;-49
2021/01/01 01:27:56;;;;;;;16.15;14.00;;;22.90;49.00;;;;;;4938378;29;20050;-47
2021/01/01 01:30:22;;;;;;;19.67;17.17;;;22.80;48.90;;;;;;4938581;29;20359;-50
2021/01/01 01:32:48;;;;;;;23.92;18.48;;;22.80;48.00;;;;;;4938374;29;20435;-47
2021/01/01 01:35:13;;;;;;;19.13;17.10;;;22.70;48.30;;;;;;4938250;29;20114;-53
2021/01/01 01:37:39;;;;;;;19.63;15.80;;;22.70;48.60;;;;;;4938031;29;20040;-50
2021/01/01 01:40:06;;;;;;;25.20;15.20;;;22.70;48.70;;;;;;4938300;29;20043;-53
2021/01/01 01:42:32;;;;;;;16.50;14.00;;;22.70;48.90;;;;;;4938201;29;20079;-48
2021/01/01 01:44:57;;;;;;;16.85;14.10;;;22.60;49.00;;;;;;4938119;29;20035;-49
2021/01/01 01:47:23;;;;;;;16.83;13.50;;;22.60;49.00;;;;;;4938138;29;20032;-46
2021/01/01 01:49:49;;;;;;;15.15;13.55;;;22.60;49.10;;;;;;4938027;29;20047;-48
2021/01/01 01:52:16;;;;;;;19.02;14.20;;;22.50;49.10;;;;;;4937712;29;20044;-48
2021/01/01 01:54:42;;;;;;;15.63;13.00;;;22.60;49.20;;;;;;4938160;29;20031;-48
2021/01/01 01:57:08;;;;;;;15.48;13.80;;;22.50;49.20;;;;;;4938116;29;20051;-48
2021/01/01 01:59:34;;;;;;;15.65;12.50;;;22.50;49.20;;;;;;4937839;29;20454;-48
2021/01/01 02:02:00;;;;;;;14.38;12.27;;;22.50;49.20;;;;;;4937958;29;20043;-48
2021/01/01 02:04:26;;;;;;;13.95;12.50;;;22.50;49.30;;;;;;4937522;29;20036;-47
2021/01/01 02:06:52;;;;;;;16.58;13.23;;;22.50;49.30;;;;;;4936799;29;20036;-46
2021/01/01 02:09:17;;;;;;;16.38;13.38;;;22.40;49.30;;;;;;4937579;29;20036;-46
2021/01/01 02:11:48;;;;;;;15.48;13.27;;;22.40;49.30;;;;;;4937620;29;20459;-47
2021/01/01 02:14:14;;;;;;;17.02;12.88;;;22.40;49.40;;;;;;4937951;29;20028;-46
2021/01/01 02:16:40;;;;;;;14.45;12.93;;;22.40;49.40;;;;;;4937555;29;20098;-48
2021/01/01 02:19:06;;;;;;;16.02;13.52;;;22.40;49.40;;;;;;4937718;29;20032;-48
2021/01/01 02:21:31;;;;;;;15.30;13.55;;;22.40;49.50;;;;;;4937472;29;20043;-45
2021/01/01 02:23:57;;;;;;;17.27;13.95;;;22.30;49.50;;;;;;4937737;29;20051;-45
2021/01/01 02:26:23;;;;;;;18.17;14.90;;;22.30;49.50;;;;;;4937587;29;20055;-51
2021/01/01 02:28:48;;;;;;;22.25;18.30;;;22.30;49.50;;;;;;4936992;29;20391;-47
2021/01/01 02:31:14;;;;;;;19.98;16.40;;;22.20;49.20;;;;;;4937370;29;20040;-53
2021/01/01 02:33:39;;;;;;;26.25;18.45;;;22.20;49.00;;;;;;4937456;29;20123;-52
2021/01/01 02:36:06;;;;;;;25.08;20.30;;;22.10;48.10;;;;;;4937546;29;20036;-55
2021/01/01 02:38:31;;;;;;;27.60;21.88;;;22.10;46.60;;;;;;4937557;29;20036;-45
2021/01/01 02:40:57;;;;;;;28.20;21.15;;;22.00;45.50;;;;;;4937331;29;20411;-44
2021/01/01 02:43:22;;;;;;;26.75;20.23;;;22.00;45.70;;;;;;4937663;29;20359;-45
2021/01/01 02:45:48;;;;;;;21.35;17.63;;;21.90;46.00;;;;;;4937567;29;20359;-47
2021/01/01 02:48:16;;;;;;;21.65;18.15;;;21.80;46.30;;;;;;4937169;29;20078;-47
2021/01/01 02:50:43;;;;;;;21.63;17.70;;;21.80;46.50;;;;;;4936978;29;20126;-51
2021/01/01 02:53:08;;;;;;;21.75;17.33;;;21.80;46.70;;;;;;4937372;29;20122;-45
2021/01/01 02:55:34;;;;;;;24.27;18.95;;;21.80;46.80;;;;;;4937683;29;20403;-48
2021/01/01 02:58:00;;;;;;;25.13;19.35;;;21.70;46.90;;;;;;4937307;29;20407;-47
2021/01/01 03:00:27;;;;;;;27.00;17.95;;;21.70;46.80;;;;;;4937388;29;20032;-45
2021/01/01 03:02:53;;;;;;;24.65;16.27;;;21.70;46.90;;;;;;4937295;29;20040;-46
2021/01/01 03:05:19;;;;;;;19.75;16.00;;;21.70;47.00;;;;;;4937361;29;20127;-46
2021/01/01 03:07:44;;;;;;;21.25;16.08;;;21.60;47.00;;;;;;4936968;29;20115;-44
2021/01/01 03:10:10;;;;;;;29.48;15.73;;;21.60;47.10;;;;;;4937237;29;20443;-48
2021/01/01 03:12:36;;;;;;;19.35;15.73;;;21.60;47.20;;;;;;4937128;29;20047;-45
2021/01/01 03:15:02;;;;;;;18.13;15.68;;;21.60;47.20;;;;;;4937656;29;20051;-47
2021/01/01 03:17:27;;;;;;;18.17;16.25;;;21.50;47.30;;;;;;4939595;29;20050;-46
2021/01/01 03:19:53;;;;;;;18.70;15.95;;;21.50;47.30;;;;;;4940841;29;20442;-45
2021/01/01 03:22:18;;;;;;;19.10;15.40;;;21.50;47.30;;;;;;4940507;29;20119;-45
2021/01/01 03:24:44;;;;;;;19.48;16.50;;;21.50;47.40;;;;;;4940714;29;20047;-45
2021/01/01 03:27:09;;;;;;;24.10;16.33;;;21.40;47.40;;;;;;4941087;29;20083;-45
2021/01/01 03:29:35;;;;;;;18.83;14.90;;;21.40;47.40;;;;;;4940492;29;20525;-44
2021/01/01 03:32:00;;;;;;;19.13;15.82;;;21.40;47.50;;;;;;4940661;29;20040;-47
2021/01/01 03:34:26;;;;;;;18.17;15.20;;;21.40;47.50;;;;;;4940344;29;20050;-45
2021/01/01 03:36:51;;;;;;;21.33;15.00;;;21.30;47.50;;;;;;4940261;29;20160;-46
2021/01/01 03:39:17;;;;;;;17.45;15.48;;;21.30;47.60;;;;;;4940646;29;20035;-48
2021/01/01 03:41:42;;;;;;;23.45;15.90;;;21.30;47.60;;;;;;4940417;29;20043;-45
2021/01/01 03:44:08;;;;;;;18.45;15.90;;;21.30;47.60;;;;;;4940553;29;20511;-46
2021/01/01 03:46:33;;;;;;;17.52;15.55;;;21.30;47.60;;;;;;4940358;29;20040;-46
2021/01/01 03:49:00;;;;;;;19.48;15.35;;;21.20;47.60;;;;;;4940112;29;20513;-44
2021/01/01 03:51:25;;;;;;;19.50;15.77;;;21.20;47.60;;;;;;4939978;29;20039;-46
2021/01/01 03:53:50;;;;;;;18.42;15.05;;;21.20;47.70;;;;;;4939990;29;20047;-45
2021/01/01 03:56:16;;;;;;;22.80;16.08;;;21.20;47.70;;;;;;4940064;29;20100;-45
2021/01/01 03:58:41;;;;;;;18.95;15.55;;;21.20;47.70;;;;;;4940333;29;20359;-44
2021/01/01 04:01:07;;;;;;;17.23;14.43;;;21.10;47.60;;;;;;4940104;29;20031;-44
2021/01/01 04:03:32;;;;;;;20.50;15.27;;;21.10;47.70;;;;;;4939529;29;20067;-44
2021/01/01 04:05:58;;;;;;;21.00;15.82;;;21.10;47.70;;;;;;4940077;29;20031;-45
2021/01/01 04:08:24;;;;;;;19.05;16.00;;;21.10;47.70;;;;;;4939972;29;20559;-45
2021/01/01 04:10:49;;;;;;;21.58;16.73;;;21.10;47.70;;;;;;4939804;29;20098;-47
2021/01/01 04:13:15;;;;;;;20.00;15.95;;;21.00;47.70;;;;;;4940002;29;20107;-46
2021/01/01 04:15:40;;;;;;;18.02;15.70;;;21.00;47.70;;;;;;4939611;29;20044;-46
2021/01/01 04:18:06;;;;;;;17.30;14.98;;;21.00;47.60;;;;;;4939726;29;20474;-45
2021/01/01 04:20:31;;;;;;;18.73;15.70;;;21.00;47.70;;;;;;4939415;29;20447;-44
2021/01/01 04:22:57;;;;;;;18.10;15.18;;;21.00;47.70;;;;;;4940171;29;20115;-45
2021/01/01 04:25:23;;;;;;;17.83;15.15;;;20.90;47.70;;;;;;4939846;29;20123;-46
2021/01/01 04:27:48;;;;;;;18.70;15.70;;;21.00;47.70;;;;;;4938663;29;20052;-46
2021/01/01 04:30:14;;;;;;;18.38;15.65;;;20.90;47.70;;;;;;4939405;29;20044;-49
2021/01/01 04:32:40;;;;;;;20.25;15.02;;;20.90;47.70;;;;;;4939702;29;20086;-45
2021/01/01 04:35:06;;;;;;;19.02;15.63;;;20.90;47.70;;;;;;4938939;29;20432;-46
2021/01/01 04:37:31;;;;;;;20.90;16.25;;;20.90;47.70;;;;;;4939299;29;20128;-45
2021/01/01 04:39:57;;;;;;;19.17;15.65;;;20.90;47.70;;;;;;4939491;29;20395;-44
2021/01/01 04:42:24;;;;;;;17.35;15.38;;;20.90;47.70;;;;;;4939376;29;20032;-45
2021/01/01 04:44:49;;;;;;;18.52;16.08;;;20.80;47.70;;;;;;4939054;29;20040;-46
2021/01/01 04:47:16;;;;;;;17.52;15.55;;;20.80;47.70;;;;;;4939384;29;20333;-46
2021/01/01 04:49:42;;;;;;;22.38;16.13;;;20.80;47.70;;;;;;4938693;29;20063;-45
2021/01/01 04:52:09;;;;;;;21.52;17.70;;;20.80;47.70;;;;;;4939015;29;20102;-45
2021/01/01 04:54:35;;;;;;;21.17;16.65;;;20.80;47.70;;;;;;4939013;29;20043;-46
2021/01/01 04:57:01;;;;;;;19.55;16.27;;;20.80;47.70;;;;;;4938999;29;20410;-46
2021/01/01 04:59:26;;;;;;;19.48;16.63;;;20.70;47.60;;;;;;4939293;29;20058;-46
2021/01/01 05:01:52;;;;;;;20.10;16.42;;;20.70;47.70;;;;;;4938811;29;20035;-47
2021/01/01 05:04:17;;;;;;;20.45;16.48;;;20.70;47.70;;;;;;4938372;29;20043;-45
2021/01/01 05:06:43;;;;;;;18.85;16.08;;;20.70;47.60;;;;;;4938593;29;20047;-48
2021/01/01 05:09:12;;;;;;;21.10;16.65;;;20.70;47.70;;;;;;4938520;29;20044;-46
2021/01/01 05:11:38;;;;;;;20.80;16.83;;;20.70;47.70;;;;;;4938677;29;20091;-46
2021/01/01 05:14:05;;;;;;;18.85;16.58;;;20.60;47.70;;;;;;4938644;29;20044;-45
2021/01/01 05:16:31;;;;;;;21.42;17.33;;;20.60;47.70;;;;;;4938589;29;20046;-48
2021/01/01 05:18:57;;;;;;;19.83;17.15;;;20.60;47.70;;;;;;4938222;29;20035;-47
2021/01/01 05:21:27;;;;;;;19.42;16.42;;;20.60;47.70;;;;;;4938162;29;20103;-46
2021/01/01 05:23:56;;;;;;;19.52;16.75;;;20.60;47.70;;;;;;4938178;29;20114;-46
2021/01/01 05:26:27;;;;;;;21.38;17.63;;;20.60;48.40;;;;;;4938262;29;20048;-45
2021/01/01 05:28:55;;;;;;;20.40;17.10;;;20.60;47.80;;;;;;4938540;29;20074;-47
2021/01/01 05:31:29;;;;;;;20.75;16.55;;;20.50;47.70;;;;;;4938137;29;20103;-46
2021/01/01 05:34:09;;;;;;;19.67;17.60;;;20.50;47.80;;;;;;4938311;29;20363;-45
2021/01/01 05:36:37;;;;;;;22.33;18.08;;;20.50;47.80;;;;;;4938307;29;20119;-46
2021/01/01 05:39:19;;;;;;;20.73;16.65;;;20.50;47.80;;;;;;4938137;29;20036;-45
2021/01/01 05:41:53;;;;;;;20.65;17.27;;;20.50;47.80;;;;;;4938094;29;20367;-45
2021/01/01 05:44:22;;;;;;;21.77;17.52;;;20.50;47.80;;;;;;4938079;29;20051;-46
2021/01/01 05:46:56;;;;;;;20.55;17.60;;;20.40;47.80;;;;;;4938236;29;20038;-45
2021/01/01 05:49:24;;;;;;;21.75;17.98;;;20.40;47.80;;;;;;4938311;29;20407;-47
2021/01/01 05:52:02;;;;;;;22.13;17.55;;;20.40;47.80;;;;;;4937958;29;20027;-46
2021/01/01 05:54:28;;;;;;;20.90;18.10;;;20.40;47.80;;;;;;4938191;29;20040;-46
2021/01/01 05:56:55;;;;;;;22.42;17.70;;;20.40;47.80;;;;;;4937999;29;20051;-46
2021/01/01 05:59:23;;;;;;;21.63;18.15;;;20.40;47.80;;;;;;4938175;29;20355;-45
2021/01/01 06:01:54;;;;;;;19.60;16.55;;;20.40;47.80;;;;;;4937988;29;20036;-45
2021/01/01 06:04:21;;;;;;;19.90;17.38;;;20.30;47.70;;;;;;4937954;29;20039;-46
2021/01/01 06:06:48;;;;;;;20.38;18.20;;;20.30;47.70;;;;;;4937704;29;20027;-48
2021/01/01 06:09:15;;;;;;;22.80;18.35;;;20.30;47.70;;;;;;4938013;29;20095;-46
2021/01/01 06:12:01;;;;;;;20.45;17.63;;;20.30;47.70;;;;;;4937608;29;20130;-45
2021/01/01 06:14:30;;;;;;;20.30;16.75;;;20.30;47.70;;;;;;4937660;29;20042;-44
2021/01/01 06:17:08;;;;;;;19.35;17.27;;;20.30;47.70;;;;;;4937645;29;20040;-46
2021/01/01 06:19:43;;;;;;;20.27;17.30;;;20.30;47.70;;;;;;4937642;29;20035;-46
2021/01/01 06:22:16;;;;;;;19.83;17.70;;;20.20;47.60;;;;;;4937407;29;20087;-45
2021/01/01 06:24:44;;;;;;;21.17;18.40;;;20.20;47.60;;;;;;4937833;29;20043;-45
2021/01/01 06:27:11;;;;;;;21.30;18.25;;;20.20;47.60;;;;;;4937197;29;20048;-46
2021/01/01 06:29:39;;;;;;;20.45;17.83;;;20.20;47.60;;;;;;4937687;29;20048;-48
2021/01/01 06:32:05;;;;;;;20.90;17.25;;;20.20;47.60;;;;;;4937205;29;20043;-46
2021/01/01 06:34:31;;;;;;;22.25;18.48;;;20.20;47.60;;;;;;4937394;29;20058;-46
2021/01/01 06:36:57;;;;;;;21.33;17.65;;;20.20;47.60;;;;;;4937518;29;20455;-45
2021/01/01 06:39:42;;;;;;;20.08;17.10;;;20.20;47.60;;;;;;4937705;29;20039;-47
2021/01/01 06:42:10;;;;;;;19.85;16.95;;;20.20;47.60;;;;;;4937394;29;20089;-46
2021/01/01 06:44:39;;;;;;;20.02;17.20;;;20.10;47.60;;;;;;4937706;29;20131;-45
2021/01/01 06:47:09;;;;;;;20.85;18.52;;;20.20;47.70;;;;;;4937364;29;20339;-50
2021/01/01 06:49:39;;;;;;;20.45;17.85;;;20.10;47.60;;;;;;4937736;29;20039;-45
2021/01/01 06:52:18;;;;;;;20.73;16.88;;;20.10;47.60;;;;;;4939001;29;20381;-49
2021/01/01 06:54:57;;;;;;;22.10;17.48;;;20.10;47.60;;;;;;4941013;29;20047;-46
2021/01/01 06:57:30;;;;;;;23.45;17.63;;;20.10;47.60;;;;;;4940878;29;20047;-46
2021/01/01 06:59:57;;;;;;;19.85;16.63;;;20.00;47.60;;;;;;4941138;29;20040;-45
2021/01/01 07:02:30;;;;;;;19.17;17.10;;;20.10;47.60;;;;;;4941309;29;20032;-46
2021/01/01 07:04:56;;;;;;;21.42;17.30;;;20.00;47.60;;;;;;4940805;29;20059;-47
2021/01/01 07:07:42;;;;;;;18.75;16.15;;;20.00;47.50;;;;;;4940901;29;20054;-46
2021/01/01 07:10:32;;;;;;;20.05;17.20;;;20.00;47.50;;;;;;4940975;29;20032;-45
2021/01/01 07:13:19;;;;;;;19.83;17.35;;;20.00;47.50;;;;;;4940874;29;20090;-47
2021/01/01 07:15:44;;;;;;;20.77;17.17;;;20.00;47.50;;;;;;4940927;29;20039;-48
2021/01/01 07:18:10;;;;;;;19.90;17.17;;;20.00;47.50;;;;;;4940766;29;20054;-46
2021/01/01 07:20:43;;;;;;;22.77;17.27;;;19.90;47.50;;;;;;4940489;29;20071;-47
2021/01/01 07:23:09;;;;;;;;;;;20.00;47.60;;;;;;4941273;29;20035;-45
2021/01/01 07:25:37;;;;;;;19.75;17.20;;;19.90;47.50;;;;;;4941028;29;19982;-45
2021/01/01 07:28:07;;;;;;;20.00;16.90;;;19.90;47.50;;;;;;4940445;29;20395;-48
2021/01/01 07:30:34;;;;;;;20.75;17.95;;;19.90;47.50;;;;;;4940612;29;20040;-46
2021/01/01 07:33:00;;;;;;;20.63;18.25;;;19.90;47.50;;;;;;4940891;29;20090;-46
2021/01/01 07:35:27;;;;;;;19.83;17.08;;;19.90;47.50;;;;;;4940516;29;20075;-47
2021/01/01 07:37:53;;;;;;;20.73;16.90;;;19.90;47.50;;;;;;4940405;29;20087;-46
2021/01/01 07:40:19;;;;;;;22.83;18.60;;;19.80;47.50;;;;;;4940447;29;20083;-45
2021/01/01 07:42:49;;;;;;;20.15;16.92;;;19.90;47.50;;;;;;4940363;29;20063;-46
2021/01/01 07:45:15;;;;;;;23.77;18.83;;;19.80;47.40;;;;;;4940182;29;20370;-46
2021/01/01 07:47:45;;;;;;;20.05;17.77;;;19.80;47.40;;;;;;4940385;29;20043;-47
2021/01/01 07:50:18;;;;;;;18.95;16.42;;;19.80;47.40;;;;;;4940391;29;20119;-46
2021/01/01 07:52:44;;;;;;;20.92;16.90;;;19.80;47.40;;;;;;4923249;29;20386;-45
2021/01/01 07:55:11;;;;;;;23.65;17.30;;;19.80;47.40;;;;;;4940071;29;20035;-45
2021/01/01 07:57:39;;;;;;;21.25;16.92;;;19.80;47.40;;;;;;4940132;29;20046;-46
2021/01/01 08:00:07;;;;;;;20.83;17.75;;;19.80;47.40;;;;;;4939688;29;20036;-45
2021/01/01 08:02:33;;;;;;;21.17;17.92;;;19.70;47.40;;;;;;4939493;29;20054;-45
2021/01/01 08:05:02;;;;;;;20.70;17.83;;;19.80;47.40;;;;;;4939235;29;20041;-45
2021/01/01 08:07:27;;;;;;;21.80;17.35;;;19.70;47.40;;;;;;4940138;29;20036;-46
2021/01/01 08:09:53;;;;;;;21.70;17.65;;;19.70;47.40;;;;;;4939983;29;20346;-46
2021/01/01 08:12:18;;;;;;;19.42;17.33;;;19.70;47.40;;;;;;4939311;29;20050;-46
2021/01/01 08:14:48;;;;;;;20.10;17.98;;;19.70;47.40;;;;;;4939744;29;20059;-45
2021/01/01 08:17:23;;;;;;;21.63;18.05;;;19.70;47.60;;;;;;4939627;29;20067;-45
2021/01/01 08:19:48;;;;;;;20.15;18.05;;;19.70;47.40;;;;;;4939354;29;20470;-46
